sensor_id;sensor_type;location;lat;lon;timestamp;temperature;humidity
5938;DHT22;2994;51.220;4.412;2023-01-24T00:01:00;6.75;64.86
5938;DHT22;2994;51.220;4.412;2023-01-24T00:03:26;6.78;65.20
5938;DHT22;2994;51.220;4.412;2023-01-24T00:05:51;6.78;65.34
5938;DHT22;2994;51.220;4.412;2023-01-24T00:08:19;6.71;65.44
5938;DHT22;2994;51.220;4.412;2023-01-24T00:10:45;6.74;65.53
5938;DHT22;2994;51.220;4.412;2023-01-24T00:13:12;6.75;64.92
5938;DHT22;2994;51.220;4.412;2023-01-24T00:15:38;6.73;65.38
5938;DHT22;2994;51.220;4.412;2023-01-24T00:18:03;6.76;65.23
5938;DHT22;2994;51.220;4.412;2023-01-24T00:20:29;6.78;65.19
5938;DHT22;2994;51.220;4.412;2023-01-24T00:22:57;6.79;65.10
5938;DHT22;2994;51.220;4.412;2023-01-24T00:25:23;6.74;65.24
5938;DHT22;2994;51.220;4.412;2023-01-24T00:27:48;6.74;65.06
5938;DHT22;2994;51.220;4.412;2023-01-24T00:30:14;6.67;65.45
5938;DHT22;2994;51.220;4.412;2023-01-24T00:32:39;6.73;64.69
5938;DHT22;2994;51.220;4.412;2023-01-24T00:35:05;6.73;64.44
5938;DHT22;2994;51.220;4.412;2023-01-24T00:37:31;6.66;65.01
5938;DHT22;2994;51.220;4.412;2023-01-24T00:39:56;6.65;65.60
5938;DHT22;2994;51.220;4.412;2023-01-24T00:42:22;6.67;65.44
5938;DHT22;2994;51.220;4.412;2023-01-24T00:44:47;6.50;66.24
5938;DHT22;2994;51.220;4.412;2023-01-24T00:47:12;6.61;65.57
5938;DHT22;2994;51.220;4.412;2023-01-24T00:49:38;6.26;66.68
5938;DHT22;2994;51.220;4.412;2023-01-24T00:52:04;6.50;65.76
5938;DHT22;2994;51.220;4.412;2023-01-24T00:54:29;6.55;65.59
5938;DHT22;2994;51.220;4.412;2023-01-24T00:56:54;6.59;65.78
5938;DHT22;2994;51.220;4.412;2023-01-24T00:59:20;6.60;65.82
5938;DHT22;2994;51.220;4.412;2023-01-24T01:01:45;6.65;65.91
5938;DHT22;2994;51.220;4.412;2023-01-24T01:04:11;6.67;65.95
5938;DHT22;2994;51.220;4.412;2023-01-24T01:06:36;6.70;65.60
5938;DHT22;2994;51.220;4.412;2023-01-24T01:09:02;6.69;65.65
5938;DHT22;2994;51.220;4.412;2023-01-24T01:11:28;6.71;65.02
5938;DHT22;2994;51.220;4.412;2023-01-24T01:13:54;6.65;65.28
5938;DHT22;2994;51.220;4.412;2023-01-24T01:16:20;6.67;65.08
5938;DHT22;2994;51.220;4.412;2023-01-24T01:18:46;6.66;65.37
5938;DHT22;2994;51.220;4.412;2023-01-24T01:21:14;6.67;65.76
5938;DHT22;2994;51.220;4.412;2023-01-24T01:23:40;6.69;65.75
5938;DHT22;2994;51.220;4.412;2023-01-24T01:26:08;6.69;65.78
5938;DHT22;2994;51.220;4.412;2023-01-24T01:28:35;6.70;65.69
5938;DHT22;2994;51.220;4.412;2023-01-24T01:31:01;6.67;65.82
5938;DHT22;2994;51.220;4.412;2023-01-24T01:33:26;6.70;65.50
5938;DHT22;2994;51.220;4.412;2023-01-24T01:35:52;6.71;65.50
5938;DHT22;2994;51.220;4.412;2023-01-24T01:38:18;6.71;65.78
5938;DHT22;2994;51.220;4.412;2023-01-24T01:40:44;6.74;65.50
5938;DHT22;2994;51.220;4.412;2023-01-24T01:43:15;6.73;65.53
5938;DHT22;2994;51.220;4.412;2023-01-24T01:45:45;6.74;65.46
5938;DHT22;2994;51.220;4.412;2023-01-24T01:48:19;6.74;65.63
5938;DHT22;2994;51.220;4.412;2023-01-24T01:53:36;6.69;65.69
5938;DHT22;2994;51.220;4.412;2023-01-24T01:56:10;6.71;65.78
5938;DHT22;2994;51.220;4.412;2023-01-24T01:58:39;6.73;65.78
5938;DHT22;2994;51.220;4.412;2023-01-24T02:01:06;6.73;65.16
5938;DHT22;2994;51.220;4.412;2023-01-24T02:03:39;6.69;64.88
5938;DHT22;2994;51.220;4.412;2023-01-24T02:06:27;6.66;64.88
5938;DHT22;2994;51.220;4.412;2023-01-24T02:08:56;6.66;65.05
5938;DHT22;2994;51.220;4.412;2023-01-24T02:11:23;6.60;65.44
5938;DHT22;2994;51.220;4.412;2023-01-24T02:14:20;6.60;65.22
5938;DHT22;2994;51.220;4.412;2023-01-24T02:17:05;6.57;65.21
5938;DHT22;2994;51.220;4.412;2023-01-24T02:22:22;6.54;65.33
5938;DHT22;2994;51.220;4.412;2023-01-24T02:25:06;6.50;65.27
5938;DHT22;2994;51.220;4.412;2023-01-24T02:27:33;6.51;65.31
5938;DHT22;2994;51.220;4.412;2023-01-24T02:30:00;6.52;65.08
5938;DHT22;2994;51.220;4.412;2023-01-24T02:32:26;6.51;65.43
5938;DHT22;2994;51.220;4.412;2023-01-24T02:34:51;6.52;65.60
5938;DHT22;2994;51.220;4.412;2023-01-24T02:37:17;6.31;66.09
5938;DHT22;2994;51.220;4.412;2023-01-24T02:40:09;6.42;66.09
5938;DHT22;2994;51.220;4.412;2023-01-24T02:42:37;6.45;66.01
5938;DHT22;2994;51.220;4.412;2023-01-24T02:45:23;6.49;65.67
5938;DHT22;2994;51.220;4.412;2023-01-24T02:47:50;6.52;65.68
5938;DHT22;2994;51.220;4.412;2023-01-24T02:50:17;6.53;65.74
5938;DHT22;2994;51.220;4.412;2023-01-24T02:52:44;6.56;65.51
5938;DHT22;2994;51.220;4.412;2023-01-24T02:55:32;6.60;64.87
5938;DHT22;2994;51.220;4.412;2023-01-24T02:57:58;6.52;65.27
5938;DHT22;2994;51.220;4.412;2023-01-24T03:00:38;6.54;65.30
5938;DHT22;2994;51.220;4.412;2023-01-24T03:03:04;6.51;65.02
5938;DHT22;2994;51.220;4.412;2023-01-24T03:05:32;6.51;65.27
5938;DHT22;2994;51.220;4.412;2023-01-24T03:08:06;6.49;65.65
5938;DHT22;2994;51.220;4.412;2023-01-24T03:10:31;6.52;66.01
5938;DHT22;2994;51.220;4.412;2023-01-24T03:12:57;6.52;65.80
5938;DHT22;2994;51.220;4.412;2023-01-24T03:15:41;6.57;65.02
5938;DHT22;2994;51.220;4.412;2023-01-24T03:18:25;6.56;65.17
5938;DHT22;2994;51.220;4.412;2023-01-24T03:21:09;6.55;65.21
5938;DHT22;2994;51.220;4.412;2023-01-24T03:23:52;6.53;65.64
5938;DHT22;2994;51.220;4.412;2023-01-24T03:26:36;6.50;65.67
5938;DHT22;2994;51.220;4.412;2023-01-24T03:29:20;6.51;65.58
5938;DHT22;2994;51.220;4.412;2023-01-24T03:32:04;6.55;65.47
5938;DHT22;2994;51.220;4.412;2023-01-24T03:34:48;6.53;65.62
5938;DHT22;2994;51.220;4.412;2023-01-24T03:37:18;6.52;65.00
5938;DHT22;2994;51.220;4.412;2023-01-24T03:40:05;6.46;65.38
5938;DHT22;2994;51.220;4.412;2023-01-24T03:42:32;6.48;65.51
5938;DHT22;2994;51.220;4.412;2023-01-24T03:44:57;6.45;65.43
5938;DHT22;2994;51.220;4.412;2023-01-24T03:47:22;6.43;65.62
5938;DHT22;2994;51.220;4.412;2023-01-24T03:49:48;6.42;65.72
5938;DHT22;2994;51.220;4.412;2023-01-24T03:52:32;6.44;65.59
5938;DHT22;2994;51.220;4.412;2023-01-24T03:54:59;6.48;65.27
5938;DHT22;2994;51.220;4.412;2023-01-24T03:57:25;6.46;65.63
5938;DHT22;2994;51.220;4.412;2023-01-24T03:59:51;6.46;65.71
5938;DHT22;2994;51.220;4.412;2023-01-24T04:02:16;6.51;65.75
5938;DHT22;2994;51.220;4.412;2023-01-24T04:04:42;6.53;65.46
5938;DHT22;2994;51.220;4.412;2023-01-24T04:07:47;6.52;65.36
5938;DHT22;2994;51.220;4.412;2023-01-24T04:10:13;6.54;65.22
5938;DHT22;2994;51.220;4.412;2023-01-24T04:12:43;6.50;65.13
5938;DHT22;2994;51.220;4.412;2023-01-24T04:15:14;6.49;64.85
5938;DHT22;2994;51.220;4.412;2023-01-24T04:17:40;6.44;65.12
5938;DHT22;2994;51.220;4.412;2023-01-24T04:20:06;6.44;65.17
5938;DHT22;2994;51.220;4.412;2023-01-24T04:22:31;6.37;65.43
5938;DHT22;2994;51.220;4.412;2023-01-24T04:24:57;6.37;65.82
5938;DHT22;2994;51.220;4.412;2023-01-24T04:27:22;6.26;65.99
5938;DHT22;2994;51.220;4.412;2023-01-24T04:29:48;6.38;65.37
5938;DHT22;2994;51.220;4.412;2023-01-24T04:32:13;6.39;65.49
5938;DHT22;2994;51.220;4.412;2023-01-24T04:34:39;6.41;65.38
5938;DHT22;2994;51.220;4.412;2023-01-24T04:37:05;6.40;65.28
5938;DHT22;2994;51.220;4.412;2023-01-24T04:39:30;6.17;66.29
5938;DHT22;2994;51.220;4.412;2023-01-24T04:41:56;6.31;65.93
5938;DHT22;2994;51.220;4.412;2023-01-24T04:44:21;6.36;65.58
5938;DHT22;2994;51.220;4.412;2023-01-24T04:46:47;6.36;65.83
5938;DHT22;2994;51.220;4.412;2023-01-24T04:49:12;6.45;65.63
5938;DHT22;2994;51.220;4.412;2023-01-24T04:51:38;6.40;65.93
5938;DHT22;2994;51.220;4.412;2023-01-24T04:54:07;6.41;65.84
5938;DHT22;2994;51.220;4.412;2023-01-24T04:56:32;6.30;66.45
5938;DHT22;2994;51.220;4.412;2023-01-24T04:58:58;6.37;65.75
5938;DHT22;2994;51.220;4.412;2023-01-24T05:01:23;6.40;65.74
5938;DHT22;2994;51.220;4.412;2023-01-24T05:03:49;6.39;66.18
5938;DHT22;2994;51.220;4.412;2023-01-24T05:06:14;6.36;66.01
5938;DHT22;2994;51.220;4.412;2023-01-24T05:08:40;6.36;66.04
5938;DHT22;2994;51.220;4.412;2023-01-24T05:11:06;6.38;65.78
5938;DHT22;2994;51.220;4.412;2023-01-24T05:13:32;6.40;66.18
5938;DHT22;2994;51.220;4.412;2023-01-24T05:15:57;6.41;66.03
5938;DHT22;2994;51.220;4.412;2023-01-24T05:18:23;6.43;66.13
5938;DHT22;2994;51.220;4.412;2023-01-24T05:20:48;6.42;66.11
5938;DHT22;2994;51.220;4.412;2023-01-24T05:23:13;6.42;66.37
5938;DHT22;2994;51.220;4.412;2023-01-24T05:25:39;6.43;65.82
5938;DHT22;2994;51.220;4.412;2023-01-24T05:28:04;6.44;65.98
5938;DHT22;2994;51.220;4.412;2023-01-24T05:30:30;6.45;66.12
5938;DHT22;2994;51.220;4.412;2023-01-24T05:32:58;6.49;65.82
5938;DHT22;2994;51.220;4.412;2023-01-24T05:35:24;6.45;66.00
5938;DHT22;2994;51.220;4.412;2023-01-24T05:37:50;6.42;65.85
5938;DHT22;2994;51.220;4.412;2023-01-24T05:40:16;6.42;66.05
5938;DHT22;2994;51.220;4.412;2023-01-24T05:42:41;6.43;66.36
5938;DHT22;2994;51.220;4.412;2023-01-24T05:45:08;6.48;65.68
5938;DHT22;2994;51.220;4.412;2023-01-24T05:47:33;6.39;65.77
5938;DHT22;2994;51.220;4.412;2023-01-24T05:49:59;6.38;66.09
5938;DHT22;2994;51.220;4.412;2023-01-24T05:52:24;6.36;66.03
5938;DHT22;2994;51.220;4.412;2023-01-24T05:54:51;6.41;65.94
5938;DHT22;2994;51.220;4.412;2023-01-24T05:57:17;6.36;66.30
5938;DHT22;2994;51.220;4.412;2023-01-24T05:59:42;6.37;65.91
5938;DHT22;2994;51.220;4.412;2023-01-24T06:02:08;6.28;66.24
5938;DHT22;2994;51.220;4.412;2023-01-24T06:04:33;6.30;66.35
5938;DHT22;2994;51.220;4.412;2023-01-24T06:06:59;6.29;66.49
5938;DHT22;2994;51.220;4.412;2023-01-24T06:09:24;6.30;66.61
5938;DHT22;2994;51.220;4.412;2023-01-24T06:11:50;6.31;66.62
5938;DHT22;2994;51.220;4.412;2023-01-24T06:14:16;6.27;66.69
5938;DHT22;2994;51.220;4.412;2023-01-24T06:16:46;6.31;66.74
5938;DHT22;2994;51.220;4.412;2023-01-24T06:19:12;6.36;66.64
5938;DHT22;2994;51.220;4.412;2023-01-24T06:21:47;6.35;66.88
5938;DHT22;2994;51.220;4.412;2023-01-24T06:24:24;6.37;66.66
5938;DHT22;2994;51.220;4.412;2023-01-24T06:26:51;6.37;66.83
5938;DHT22;2994;51.220;4.412;2023-01-24T06:29:18;6.39;66.71
5938;DHT22;2994;51.220;4.412;2023-01-24T06:32:01;6.39;66.31
5938;DHT22;2994;51.220;4.412;2023-01-24T06:34:57;6.36;66.53
5938;DHT22;2994;51.220;4.412;2023-01-24T06:37:41;6.38;66.57
5938;DHT22;2994;51.220;4.412;2023-01-24T06:40:10;6.37;66.30
5938;DHT22;2994;51.220;4.412;2023-01-24T06:42:37;6.38;66.16
5938;DHT22;2994;51.220;4.412;2023-01-24T06:45:03;6.33;65.98
5938;DHT22;2994;51.220;4.412;2023-01-24T06:47:29;6.30;66.27
5938;DHT22;2994;51.220;4.412;2023-01-24T06:49:54;6.27;66.36
5938;DHT22;2994;51.220;4.412;2023-01-24T06:52:20;6.29;66.85
5938;DHT22;2994;51.220;4.412;2023-01-24T06:54:45;6.31;66.53
5938;DHT22;2994;51.220;4.412;2023-01-24T06:57:11;6.22;66.75
5938;DHT22;2994;51.220;4.412;2023-01-24T06:59:36;6.25;66.63
5938;DHT22;2994;51.220;4.412;2023-01-24T07:02:02;6.28;66.37
5938;DHT22;2994;51.220;4.412;2023-01-24T07:04:27;6.25;66.47
5938;DHT22;2994;51.220;4.412;2023-01-24T07:06:53;6.20;66.65
5938;DHT22;2994;51.220;4.412;2023-01-24T07:09:22;6.21;66.46
5938;DHT22;2994;51.220;4.412;2023-01-24T07:11:48;6.21;66.65
5938;DHT22;2994;51.220;4.412;2023-01-24T07:14:18;6.23;66.81
5938;DHT22;2994;51.220;4.412;2023-01-24T07:16:43;6.24;66.78
5938;DHT22;2994;51.220;4.412;2023-01-24T07:19:14;6.25;66.81
5938;DHT22;2994;51.220;4.412;2023-01-24T07:21:41;6.26;66.85
5938;DHT22;2994;51.220;4.412;2023-01-24T07:24:15;6.28;66.36
5938;DHT22;2994;51.220;4.412;2023-01-24T07:26:41;6.25;66.59
5938;DHT22;2994;51.220;4.412;2023-01-24T07:29:07;6.25;66.26
5938;DHT22;2994;51.220;4.412;2023-01-24T07:31:32;6.23;66.04
5938;DHT22;2994;51.220;4.412;2023-01-24T07:33:58;6.20;66.34
5938;DHT22;2994;51.220;4.412;2023-01-24T07:36:23;6.21;66.02
5938;DHT22;2994;51.220;4.412;2023-01-24T07:38:53;6.16;66.43
5938;DHT22;2994;51.220;4.412;2023-01-24T07:41:18;6.15;66.60
5938;DHT22;2994;51.220;4.412;2023-01-24T07:43:43;6.17;66.39
5938;DHT22;2994;51.220;4.412;2023-01-24T07:46:09;6.14;66.35
5938;DHT22;2994;51.220;4.412;2023-01-24T07:48:34;6.12;66.72
5938;DHT22;2994;51.220;4.412;2023-01-24T07:51:00;6.14;66.88
5938;DHT22;2994;51.220;4.412;2023-01-24T07:53:26;6.17;66.88
5938;DHT22;2994;51.220;4.412;2023-01-24T07:55:52;6.19;66.85
5938;DHT22;2994;51.220;4.412;2023-01-24T07:58:17;6.21;66.64
5938;DHT22;2994;51.220;4.412;2023-01-24T08:00:43;6.23;66.65
5938;DHT22;2994;51.220;4.412;2023-01-24T08:03:09;6.25;66.96
5938;DHT22;2994;51.220;4.412;2023-01-24T08:05:38;6.26;66.78
5938;DHT22;2994;51.220;4.412;2023-01-24T08:08:03;6.27;66.01
5938;DHT22;2994;51.220;4.412;2023-01-24T08:10:29;6.24;66.05
5938;DHT22;2994;51.220;4.412;2023-01-24T08:12:55;6.22;66.35
5938;DHT22;2994;51.220;4.412;2023-01-24T08:15:21;6.22;66.47
5938;DHT22;2994;51.220;4.412;2023-01-24T08:17:47;6.22;66.48
5938;DHT22;2994;51.220;4.412;2023-01-24T08:20:12;6.17;66.31
5938;DHT22;2994;51.220;4.412;2023-01-24T08:22:39;6.10;66.91
5938;DHT22;2994;51.220;4.412;2023-01-24T08:25:05;6.21;66.69
5938;DHT22;2994;51.220;4.412;2023-01-24T08:27:31;6.24;66.72
5938;DHT22;2994;51.220;4.412;2023-01-24T08:29:57;6.23;66.53
5938;DHT22;2994;51.220;4.412;2023-01-24T08:32:22;6.28;66.52
5938;DHT22;2994;51.220;4.412;2023-01-24T08:34:48;6.26;66.46
5938;DHT22;2994;51.220;4.412;2023-01-24T08:37:13;6.27;66.36
5938;DHT22;2994;51.220;4.412;2023-01-24T08:39:39;6.28;66.33
5938;DHT22;2994;51.220;4.412;2023-01-24T08:42:04;6.28;66.30
5938;DHT22;2994;51.220;4.412;2023-01-24T08:44:30;6.29;66.22
5938;DHT22;2994;51.220;4.412;2023-01-24T08:46:55;6.30;66.38
5938;DHT22;2994;51.220;4.412;2023-01-24T08:49:21;6.31;66.24
5938;DHT22;2994;51.220;4.412;2023-01-24T08:51:47;6.35;66.55
5938;DHT22;2994;51.220;4.412;2023-01-24T08:54:14;6.31;66.14
5938;DHT22;2994;51.220;4.412;2023-01-24T08:56:39;6.33;66.01
5938;DHT22;2994;51.220;4.412;2023-01-24T08:59:05;6.29;66.37
5938;DHT22;2994;51.220;4.412;2023-01-24T09:01:30;6.33;66.14
5938;DHT22;2994;51.220;4.412;2023-01-24T09:03:58;6.35;66.19
5938;DHT22;2994;51.220;4.412;2023-01-24T09:06:25;6.37;66.29
5938;DHT22;2994;51.220;4.412;2023-01-24T09:08:54;6.39;66.24
5938;DHT22;2994;51.220;4.412;2023-01-24T09:11:20;6.41;66.06
5938;DHT22;2994;51.220;4.412;2023-01-24T09:13:46;6.43;65.59
5938;DHT22;2994;51.220;4.412;2023-01-24T09:16:11;6.38;65.87
5938;DHT22;2994;51.220;4.412;2023-01-24T09:18:37;6.39;66.22
5938;DHT22;2994;51.220;4.412;2023-01-24T09:21:03;6.38;65.93
5938;DHT22;2994;51.220;4.412;2023-01-24T09:23:29;6.36;66.05
5938;DHT22;2994;51.220;4.412;2023-01-24T09:25:54;6.07;66.55
5938;DHT22;2994;51.220;4.412;2023-01-24T09:28:20;6.25;66.26
5938;DHT22;2994;51.220;4.412;2023-01-24T09:30:49;6.25;66.10
5938;DHT22;2994;51.220;4.412;2023-01-24T09:33:16;6.20;65.79
5938;DHT22;2994;51.220;4.412;2023-01-24T09:35:52;6.25;65.33
5938;DHT22;2994;51.220;4.412;2023-01-24T09:38:18;6.20;65.37
5938;DHT22;2994;51.220;4.412;2023-01-24T09:40:46;6.12;65.75
5938;DHT22;2994;51.220;4.412;2023-01-24T09:44:10;6.15;65.57
5938;DHT22;2994;51.220;4.412;2023-01-24T09:51:44;5.99;65.28
5938;DHT22;2994;51.220;4.412;2023-01-24T09:54:27;6.14;65.63
5938;DHT22;2994;51.220;4.412;2023-01-24T09:56:55;6.15;65.75
5938;DHT22;2994;51.220;4.412;2023-01-24T09:59:26;6.13;65.75
5938;DHT22;2994;51.220;4.412;2023-01-24T10:01:57;6.12;65.60
5938;DHT22;2994;51.220;4.412;2023-01-24T10:04:42;6.08;65.82
5938;DHT22;2994;51.220;4.412;2023-01-24T10:23:47;6.26;65.85
5938;DHT22;2994;51.220;4.412;2023-01-24T10:26:42;6.25;65.98
5938;DHT22;2994;51.220;4.412;2023-01-24T10:29:23;6.29;66.11
5938;DHT22;2994;51.220;4.412;2023-01-24T10:34:40;6.37;65.74
5938;DHT22;2994;51.220;4.412;2023-01-24T10:39:36;6.36;65.46
5938;DHT22;2994;51.220;4.412;2023-01-24T10:42:01;6.37;65.72
5938;DHT22;2994;51.220;4.412;2023-01-24T10:44:35;6.39;65.78
5938;DHT22;2994;51.220;4.412;2023-01-24T10:50:07;5.78;66.94
5938;DHT22;2994;51.220;4.412;2023-01-24T10:52:32;6.19;66.21
5938;DHT22;2994;51.220;4.412;2023-01-24T10:55:00;6.30;65.85
5938;DHT22;2994;51.220;4.412;2023-01-24T10:57:43;6.26;65.31
5938;DHT22;2994;51.220;4.412;2023-01-24T11:02:59;6.34;65.77
5938;DHT22;2994;51.220;4.412;2023-01-24T11:05:34;6.37;65.73
5938;DHT22;2994;51.220;4.412;2023-01-24T11:08:01;6.36;65.91
5938;DHT22;2994;51.220;4.412;2023-01-24T11:10:41;6.38;65.96
5938;DHT22;2994;51.220;4.412;2023-01-24T11:18:47;6.21;64.90
5938;DHT22;2994;51.220;4.412;2023-01-24T11:21:16;6.26;64.96
5938;DHT22;2994;51.220;4.412;2023-01-24T11:23:43;5.91;66.08
5938;DHT22;2994;51.220;4.412;2023-01-24T11:26:25;6.17;65.69
5938;DHT22;2994;51.220;4.412;2023-01-24T11:29:00;6.12;65.46
5938;DHT22;2994;51.220;4.412;2023-01-24T11:31:30;6.19;65.24
5938;DHT22;2994;51.220;4.412;2023-01-24T11:36:55;6.25;65.30
5938;DHT22;2994;51.220;4.412;2023-01-24T11:42:22;6.30;65.44
5938;DHT22;2994;51.220;4.412;2023-01-24T11:47:41;6.23;65.39
5938;DHT22;2994;51.220;4.412;2023-01-24T12:01:30;6.30;65.46
5938;DHT22;2994;51.220;4.412;2023-01-24T12:07:24;6.36;65.09
5938;DHT22;2994;51.220;4.412;2023-01-24T12:09:57;6.40;65.17
5938;DHT22;2994;51.220;4.412;2023-01-24T12:23:24;6.52;65.27
5938;DHT22;2994;51.220;4.412;2023-01-24T12:25:56;6.54;64.14
5938;DHT22;2994;51.220;4.412;2023-01-24T12:28:34;6.49;64.40
5938;DHT22;2994;51.220;4.412;2023-01-24T12:31:03;6.45;64.47
5938;DHT22;2994;51.220;4.412;2023-01-24T12:39:27;6.45;63.98
5938;DHT22;2994;51.220;4.412;2023-01-24T12:42:04;6.42;64.30
5938;DHT22;2994;51.220;4.412;2023-01-24T12:44:48;6.43;64.38
5938;DHT22;2994;51.220;4.412;2023-01-24T12:53:22;6.41;63.92
5938;DHT22;2994;51.220;4.412;2023-01-24T12:55:56;6.37;64.01
5938;DHT22;2994;51.220;4.412;2023-01-24T12:58:34;6.36;64.81
5938;DHT22;2994;51.220;4.412;2023-01-24T13:07:33;6.30;64.43
5938;DHT22;2994;51.220;4.412;2023-01-24T13:10:05;6.35;64.78
5938;DHT22;2994;51.220;4.412;2023-01-24T13:12:31;6.38;64.78
5938;DHT22;2994;51.220;4.412;2023-01-24T13:15:03;6.42;64.20
5938;DHT22;2994;51.220;4.412;2023-01-24T13:17:38;6.40;64.01
5938;DHT22;2994;51.220;4.412;2023-01-24T13:20:28;6.34;64.44
5938;DHT22;2994;51.220;4.412;2023-01-24T13:26:00;6.38;64.60
5938;DHT22;2994;51.220;4.412;2023-01-24T13:28:51;6.40;64.53
5938;DHT22;2994;51.220;4.412;2023-01-24T13:31:31;6.33;64.37
5938;DHT22;2994;51.220;4.412;2023-01-24T13:34:02;6.39;64.37
5938;DHT22;2994;51.220;4.412;2023-01-24T13:36:32;6.36;64.40
5938;DHT22;2994;51.220;4.412;2023-01-24T13:38:58;6.40;64.43
5938;DHT22;2994;51.220;4.412;2023-01-24T13:43:57;5.86;65.81
5938;DHT22;2994;51.220;4.412;2023-01-24T13:51:58;6.11;65.08
5938;DHT22;2994;51.220;4.412;2023-01-24T13:54:38;6.38;64.79
5938;DHT22;2994;51.220;4.412;2023-01-24T14:02:31;6.36;63.82
5938;DHT22;2994;51.220;4.412;2023-01-24T14:04:58;6.39;63.96
5938;DHT22;2994;51.220;4.412;2023-01-24T14:07:37;6.37;64.05
5938;DHT22;2994;51.220;4.412;2023-01-24T14:10:05;6.40;64.25
5938;DHT22;2994;51.220;4.412;2023-01-24T14:12:39;6.42;64.50
5938;DHT22;2994;51.220;4.412;2023-01-24T14:15:37;6.46;64.19
5938;DHT22;2994;51.220;4.412;2023-01-24T14:18:46;6.49;63.98
5938;DHT22;2994;51.220;4.412;2023-01-24T14:21:25;6.51;64.12
5938;DHT22;2994;51.220;4.412;2023-01-24T14:24:06;6.50;63.82
5938;DHT22;2994;51.220;4.412;2023-01-24T14:26:40;6.51;64.00
5938;DHT22;2994;51.220;4.412;2023-01-24T14:29:13;6.53;64.27
5938;DHT22;2994;51.220;4.412;2023-01-24T14:31:40;6.52;63.79
5938;DHT22;2994;51.220;4.412;2023-01-24T14:34:20;6.50;62.97
5938;DHT22;2994;51.220;4.412;2023-01-24T14:36:49;6.50;62.85
5938;DHT22;2994;51.220;4.412;2023-01-24T14:39:24;6.45;62.85
5938;DHT22;2994;51.220;4.412;2023-01-24T14:42:02;6.40;63.03
5938;DHT22;2994;51.220;4.412;2023-01-24T14:44:35;6.38;63.09
5938;DHT22;2994;51.220;4.412;2023-01-24T14:47:22;6.36;63.07
5938;DHT22;2994;51.220;4.412;2023-01-24T14:49:54;6.34;63.44
5938;DHT22;2994;51.220;4.412;2023-01-24T14:52:22;6.37;63.26
5938;DHT22;2994;51.220;4.412;2023-01-24T14:54:53;6.33;63.31
5938;DHT22;2994;51.220;4.412;2023-01-24T14:57:23;6.33;63.30
5938;DHT22;2994;51.220;4.412;2023-01-24T15:02:34;6.31;63.31
5938;DHT22;2994;51.220;4.412;2023-01-24T15:05:00;6.11;63.69
5938;DHT22;2994;51.220;4.412;2023-01-24T15:07:26;6.16;63.63
5938;DHT22;2994;51.220;4.412;2023-01-24T15:09:52;6.26;63.18
5938;DHT22;2994;51.220;4.412;2023-01-24T15:12:29;6.24;63.49
5938;DHT22;2994;51.220;4.412;2023-01-24T15:14:56;6.27;63.58
5938;DHT22;2994;51.220;4.412;2023-01-24T15:17:30;6.26;63.70
5938;DHT22;2994;51.220;4.412;2023-01-24T15:19:58;6.20;63.62
5938;DHT22;2994;51.220;4.412;2023-01-24T15:22:26;6.02;63.75
5938;DHT22;2994;51.220;4.412;2023-01-24T15:24:57;6.11;63.71
5938;DHT22;2994;51.220;4.412;2023-01-24T15:27:36;6.12;63.69
5938;DHT22;2994;51.220;4.412;2023-01-24T15:30:22;6.14;63.98
5938;DHT22;2994;51.220;4.412;2023-01-24T15:40:34;6.23;64.25
5938;DHT22;2994;51.220;4.412;2023-01-24T15:43:01;6.24;63.89
5938;DHT22;2994;51.220;4.412;2023-01-24T15:45:49;6.22;63.79
5938;DHT22;2994;51.220;4.412;2023-01-24T15:48:23;6.24;63.96
5938;DHT22;2994;51.220;4.412;2023-01-24T15:50:53;6.21;64.08
5938;DHT22;2994;51.220;4.412;2023-01-24T15:53:33;6.23;64.14
5938;DHT22;2994;51.220;4.412;2023-01-24T15:56:04;6.25;64.30
5938;DHT22;2994;51.220;4.412;2023-01-24T15:58:31;6.21;64.53
5938;DHT22;2994;51.220;4.412;2023-01-24T16:00:59;6.26;64.02
5938;DHT22;2994;51.220;4.412;2023-01-24T16:03:26;6.24;64.10
5938;DHT22;2994;51.220;4.412;2023-01-24T16:05:51;6.26;63.86
5938;DHT22;2994;51.220;4.412;2023-01-24T16:08:17;6.25;63.98
5938;DHT22;2994;51.220;4.412;2023-01-24T16:10:44;6.25;63.87
5938;DHT22;2994;51.220;4.412;2023-01-24T16:13:32;6.24;64.46
5938;DHT22;2994;51.220;4.412;2023-01-24T16:16:00;6.26;64.45
5938;DHT22;2994;51.220;4.412;2023-01-24T16:18:26;6.26;64.44
5938;DHT22;2994;51.220;4.412;2023-01-24T16:20:52;6.26;64.08
5938;DHT22;2994;51.220;4.412;2023-01-24T16:23:18;6.26;64.04
5938;DHT22;2994;51.220;4.412;2023-01-24T16:25:45;6.24;64.25
5938;DHT22;2994;51.220;4.412;2023-01-24T16:28:25;6.07;65.14
5938;DHT22;2994;51.220;4.412;2023-01-24T16:30:52;6.15;64.49
5938;DHT22;2994;51.220;4.412;2023-01-24T16:33:18;6.20;63.98
5938;DHT22;2994;51.220;4.412;2023-01-24T16:35:45;6.16;64.07
5938;DHT22;2994;51.220;4.412;2023-01-24T16:38:12;6.15;64.18
5938;DHT22;2994;51.220;4.412;2023-01-24T16:40:38;6.17;64.47
5938;DHT22;2994;51.220;4.412;2023-01-24T16:43:04;6.19;64.28
5938;DHT22;2994;51.220;4.412;2023-01-24T16:45:31;6.23;63.94
5938;DHT22;2994;51.220;4.412;2023-01-24T16:47:57;6.20;63.79
5938;DHT22;2994;51.220;4.412;2023-01-24T16:50:22;6.17;63.82
5938;DHT22;2994;51.220;4.412;2023-01-24T16:52:48;6.12;64.03
5938;DHT22;2994;51.220;4.412;2023-01-24T16:55:14;6.12;64.32
5938;DHT22;2994;51.220;4.412;2023-01-24T16:57:39;6.13;64.68
5938;DHT22;2994;51.220;4.412;2023-01-24T17:00:09;6.14;64.59
5938;DHT22;2994;51.220;4.412;2023-01-24T17:02:39;6.19;63.92
5938;DHT22;2994;51.220;4.412;2023-01-24T17:05:05;6.12;64.19
5938;DHT22;2994;51.220;4.412;2023-01-24T17:07:31;6.09;64.18
5938;DHT22;2994;51.220;4.412;2023-01-24T17:09:57;6.10;64.15
5938;DHT22;2994;51.220;4.412;2023-01-24T17:12:23;6.07;64.10
5938;DHT22;2994;51.220;4.412;2023-01-24T17:14:48;6.05;63.81
5938;DHT22;2994;51.220;4.412;2023-01-24T17:17:26;6.00;64.12
5938;DHT22;2994;51.220;4.412;2023-01-24T17:20:14;6.01;64.46
5938;DHT22;2994;51.220;4.412;2023-01-24T17:23:05;5.93;64.47
5938;DHT22;2994;51.220;4.412;2023-01-24T17:36:22;5.94;64.79
5938;DHT22;2994;51.220;4.412;2023-01-24T17:38:53;5.95;64.60
5938;DHT22;2994;51.220;4.412;2023-01-24T17:41:20;5.93;64.65
5938;DHT22;2994;51.220;4.412;2023-01-24T17:43:47;5.91;64.69
5938;DHT22;2994;51.220;4.412;2023-01-24T17:46:14;5.93;64.48
5938;DHT22;2994;51.220;4.412;2023-01-24T17:48:39;5.93;64.73
5938;DHT22;2994;51.220;4.412;2023-01-24T17:51:10;5.93;64.66
5938;DHT22;2994;51.220;4.412;2023-01-24T17:53:38;5.90;64.60
5938;DHT22;2994;51.220;4.412;2023-01-24T17:56:04;5.92;64.93
5938;DHT22;2994;51.220;4.412;2023-01-24T17:58:31;5.97;64.48
5938;DHT22;2994;51.220;4.412;2023-01-24T18:00:58;5.94;64.82
5938;DHT22;2994;51.220;4.412;2023-01-24T18:03:24;5.99;64.81
5938;DHT22;2994;51.220;4.412;2023-01-24T18:05:51;5.98;64.60
5938;DHT22;2994;51.220;4.412;2023-01-24T18:08:20;5.99;64.61
5938;DHT22;2994;51.220;4.412;2023-01-24T18:10:49;6.01;64.68
5938;DHT22;2994;51.220;4.412;2023-01-24T18:13:19;6.00;64.66
5938;DHT22;2994;51.220;4.412;2023-01-24T18:16:03;6.02;65.01
5938;DHT22;2994;51.220;4.412;2023-01-24T18:18:28;6.00;64.88
5938;DHT22;2994;51.220;4.412;2023-01-24T18:20:57;6.05;64.76
5938;DHT22;2994;51.220;4.412;2023-01-24T18:23:25;6.05;65.02
5938;DHT22;2994;51.220;4.412;2023-01-24T18:25:51;6.05;65.02
5938;DHT22;2994;51.220;4.412;2023-01-24T18:28:16;6.06;64.55
5938;DHT22;2994;51.220;4.412;2023-01-24T18:30:42;6.01;64.53
5938;DHT22;2994;51.220;4.412;2023-01-24T18:33:25;5.98;64.51
5938;DHT22;2994;51.220;4.412;2023-01-24T18:36:19;5.95;64.75
5938;DHT22;2994;51.220;4.412;2023-01-24T18:38:45;5.93;64.85
5938;DHT22;2994;51.220;4.412;2023-01-24T18:41:11;5.97;64.50
5938;DHT22;2994;51.220;4.412;2023-01-24T18:43:45;5.93;64.56
5938;DHT22;2994;51.220;4.412;2023-01-24T18:46:14;5.86;64.77
5938;DHT22;2994;51.220;4.412;2023-01-24T18:48:44;5.90;64.40